Butte, MT

11:22 AM MST on February 09, 2016 (GMT -0700)
Mooney | | Change Station
CLOSE
Current Station
Airport
Location: Butte,
Elevation: 5545 ft
Nearby Weather Stations

Elev 5545 ft 45.95 °N, 112.50 °W | Updated 29 minutes ago

Clear
Clear
21 °F
Feels Like 15 °F
N
5
Wind Variable Wind from SE

Today
High -- | Low -- °F
--% Chance of Precip.
Yesterday
High -- | Low -- °F
Precip. -- in
Pressure 30.63 in
Visibility 10.0 miles
Clouds Clear
Windchill 15 °F
Dew Point 18 °F
Humidity 88%
Rainfall 0.00 in
Snow Depth Not available.
7:42 AM 5:46 PM
New Moon, 2% visible
METAR KBTM 091753Z AUTO 14004KT 10SM CLR M06/M08 A3046 RMK AO2 SLP372 I6000 T10611078 11061 21117 58006
Pressure 30.63 in
Visibility 10.0 miles
Clouds Clear
Windchill 15 °F
Dew Point 18 °F
Humidity 88%
Rainfall 0.00 in
Snow Depth Not available.
7:42 AM 5:46 PM
New Moon, 2% visible
METAR KBTM 091753Z AUTO 14004KT 10SM CLR M06/M08 A3046 RMK AO2 SLP372 I6000 T10611078 11061 21117 58006

10-Day Weather Forecast

Almanac

Astronomy

Feb. 09, 2016 Rise Set
Actual Time
Civil Twilight
Nautical Twilight
Astronomical Twilight
Moon
Length of Visible Light
Length of Day
Tomorrow will be .
, % of the Moon is Illuminated

Today's Extremes

State Highs State Lows

Community

WunderPhotos

Upload Photos

1,891,655 photos uploaded!

WunderBlog® & News

Nearby

Air Quality

  Air Quality AQ Index Pollutant
Not available.

Snow Depth

Station Depth Elevation

Earthquake Activity

City Distance Mag. Time & Date
Minimum magnitude displayed is 2.5.

Coastal Water Temperatures

Place Temperature

Stations

Nearby Weather Stations

Station Location Temp. Windchill Dew Point Humidity Wind Precip. Elev Updated Type
                   

Watches & Warnings

There are currently no watches in effect.